createdAt,value
2019-02-18T00:02:21.579Z,6.80
2019-02-18T00:04:50.068Z,6.80
2019-02-18T00:07:18.560Z,6.70
2019-02-18T00:09:47.037Z,6.70
2019-02-18T00:12:15.492Z,6.70
2019-02-18T00:14:43.972Z,6.60
2019-02-18T00:17:12.478Z,6.60
2019-02-18T00:19:41.058Z,6.60
2019-02-18T00:22:09.643Z,6.60
2019-02-18T00:24:38.171Z,6.50
2019-02-18T00:27:06.633Z,6.50
2019-02-18T00:29:35.191Z,6.40
2019-02-18T00:32:03.748Z,6.40
2019-02-18T00:34:32.204Z,6.40
2019-02-18T00:37:00.679Z,6.30
2019-02-18T00:39:29.268Z,6.30
2019-02-18T00:41:57.744Z,6.20
2019-02-18T00:44:26.248Z,6.20
2019-02-18T00:46:54.776Z,6.10
2019-02-18T00:49:23.228Z,6.10
2019-02-18T00:51:51.737Z,6.10
2019-02-18T00:54:20.216Z,6.10
2019-02-18T00:56:48.676Z,6.00
2019-02-18T00:59:17.209Z,6.00
2019-02-18T01:01:45.703Z,6.00
2019-02-18T01:04:14.183Z,5.90
2019-02-18T01:06:42.641Z,5.90
2019-02-18T01:09:11.217Z,5.80
2019-02-18T01:11:39.732Z,5.80
2019-02-18T01:14:08.196Z,5.70
2019-02-18T01:16:36.669Z,5.70
2019-02-18T01:19:05.143Z,5.60
2019-02-18T01:21:33.629Z,5.60
2019-02-18T01:24:02.113Z,5.60
2019-02-18T01:26:30.642Z,5.50
2019-02-18T01:28:59.176Z,5.40
2019-02-18T01:31:47.004Z,5.40
2019-02-18T01:34:15.489Z,5.40
2019-02-18T01:36:44.200Z,5.30
2019-02-18T01:39:12.715Z,5.30
2019-02-18T01:41:41.300Z,5.20
2019-02-18T01:44:09.788Z,5.30
2019-02-18T01:46:38.473Z,5.20
2019-02-18T01:49:07.019Z,5.20
2019-02-18T01:51:35.492Z,5.10
2019-02-18T01:54:04.111Z,5.10
2019-02-18T01:56:32.628Z,5.10
2019-02-18T01:59:01.084Z,5.00
2019-02-18T02:01:29.572Z,5.00
2019-02-18T02:03:58.067Z,5.00
2019-02-18T02:06:26.534Z,5.00
2019-02-18T02:08:55.480Z,5.00
2019-02-18T02:11:23.969Z,4.80
2019-02-18T02:13:52.441Z,4.80
2019-02-18T02:16:20.894Z,4.80
2019-02-18T02:18:49.461Z,4.70
2019-02-18T02:21:18.070Z,4.70
2019-02-18T02:23:46.546Z,4.70
2019-02-18T02:26:15.095Z,4.70
2019-02-18T02:28:43.618Z,4.60
2019-02-18T02:31:12.079Z,4.60
2019-02-18T02:33:40.578Z,4.70
2019-02-18T02:36:09.125Z,4.60
2019-02-18T02:38:37.584Z,4.60
2019-02-18T02:41:06.218Z,4.50
2019-02-18T02:43:37.599Z,4.60
2019-02-18T02:46:06.118Z,4.50
2019-02-18T02:48:34.599Z,4.50
2019-02-18T02:51:03.154Z,4.40
2019-02-18T02:53:31.617Z,4.40
2019-02-18T02:56:00.172Z,4.30
2019-02-18T02:58:28.768Z,4.30
2019-02-18T03:00:57.270Z,4.30
2019-02-18T03:03:25.769Z,4.30
2019-02-18T03:05:55.159Z,4.20
2019-02-18T03:08:23.653Z,4.20
2019-02-18T03:10:52.220Z,4.20
2019-02-18T03:13:20.824Z,4.20
2019-02-18T03:15:49.357Z,4.10
2019-02-18T03:18:17.878Z,4.10
2019-02-18T03:20:46.399Z,4.00
2019-02-18T03:23:14.857Z,4.10
2019-02-18T03:25:44.917Z,4.00
2019-02-18T03:28:34.584Z,4.00
2019-02-18T03:31:09.226Z,3.90
2019-02-18T03:33:44.033Z,3.90
2019-02-18T03:36:12.501Z,3.90
2019-02-18T03:38:40.992Z,3.90
2019-02-18T03:41:09.508Z,3.90
2019-02-18T03:43:38.068Z,3.80
2019-02-18T03:46:06.549Z,3.80
2019-02-18T03:48:35.132Z,3.80
2019-02-18T03:51:03.675Z,3.80
2019-02-18T03:53:32.125Z,3.80
2019-02-18T03:56:00.726Z,3.70
2019-02-18T03:58:29.274Z,3.70
2019-02-18T04:00:57.864Z,3.70
2019-02-18T04:03:26.450Z,3.60
2019-02-18T04:05:55.502Z,3.60
2019-02-18T04:08:23.972Z,3.60
2019-02-18T04:10:52.592Z,3.60
2019-02-18T04:13:21.089Z,3.50
2019-02-18T04:15:49.587Z,3.50
2019-02-18T04:18:18.221Z,3.50
2019-02-18T04:20:46.729Z,3.50
2019-02-18T04:23:15.179Z,3.40
2019-02-18T04:25:44.096Z,3.40
2019-02-18T04:28:12.568Z,3.40
2019-02-18T04:30:41.087Z,3.40
2019-02-18T04:33:09.607Z,3.40
2019-02-18T04:35:38.063Z,3.40
2019-02-18T04:38:06.582Z,3.40
2019-02-18T04:40:35.228Z,3.40
2019-02-18T04:43:03.753Z,3.30
2019-02-18T04:45:32.229Z,3.40
2019-02-18T04:48:00.745Z,3.30
2019-02-18T04:50:29.253Z,3.30
2019-02-18T04:52:57.733Z,3.30
2019-02-18T04:55:26.439Z,3.20
2019-02-18T04:57:54.912Z,3.20
2019-02-18T05:00:23.379Z,3.30
2019-02-18T05:02:51.852Z,3.30
2019-02-18T05:05:20.322Z,3.20
2019-02-18T05:07:48.986Z,3.20
2019-02-18T05:10:17.501Z,3.20
2019-02-18T05:12:46.020Z,3.20
2019-02-18T05:15:14.589Z,3.20
2019-02-18T05:17:43.121Z,3.20
2019-02-18T05:20:11.589Z,3.10
2019-02-18T05:22:40.252Z,3.10
2019-02-18T05:25:10.104Z,3.20
2019-02-18T05:27:38.944Z,3.10
2019-02-18T05:30:10.265Z,3.10
2019-02-18T05:32:38.787Z,3.10
2019-02-18T05:35:08.195Z,3.10
2019-02-18T05:37:36.730Z,3.10
2019-02-18T05:40:10.176Z,3.10
2019-02-18T05:42:38.821Z,3.10
2019-02-18T05:45:08.724Z,3.10
2019-02-18T05:47:37.337Z,3.10
2019-02-18T05:50:07.744Z,3.10
2019-02-18T05:52:36.275Z,3.10
2019-02-18T05:55:06.650Z,3.10
2019-02-18T05:57:35.108Z,3.10
2019-02-18T06:00:05.003Z,3.00
2019-02-18T06:02:33.477Z,3.00
2019-02-18T06:05:01.945Z,3.00
2019-02-18T06:07:30.468Z,3.00
2019-02-18T06:09:58.949Z,3.00
2019-02-18T06:12:27.453Z,3.00
2019-02-18T06:14:56.662Z,3.00
2019-02-18T06:17:25.219Z,2.90
2019-02-18T06:19:53.754Z,2.90
2019-02-18T06:22:22.279Z,2.90
2019-02-18T06:24:50.912Z,2.90
2019-02-18T06:27:19.378Z,2.90
2019-02-18T06:29:47.907Z,2.90
2019-02-18T06:32:16.524Z,2.90
2019-02-18T06:34:45.052Z,2.90
2019-02-18T06:37:13.506Z,2.90
2019-02-18T06:39:42.280Z,2.90
2019-02-18T06:42:11.365Z,2.90
2019-02-18T06:44:44.707Z,2.90
2019-02-18T06:47:13.262Z,2.90
2019-02-18T06:49:41.832Z,3.00
2019-02-18T06:52:10.386Z,2.90
2019-02-18T06:54:38.900Z,2.90
2019-02-18T06:57:24.454Z,2.90
2019-02-18T06:59:53.937Z,3.00
2019-02-18T07:02:24.071Z,2.90
2019-02-18T07:05:00.301Z,2.90
2019-02-18T07:07:33.376Z,2.90
2019-02-18T07:10:03.667Z,2.90
2019-02-18T07:12:36.859Z,3.00
2019-02-18T07:15:06.697Z,3.00
2019-02-18T07:17:35.171Z,3.10
2019-02-18T07:20:05.585Z,3.10
2019-02-18T07:22:34.071Z,3.20
2019-02-18T07:25:02.529Z,3.20
2019-02-18T07:27:31.132Z,3.30
2019-02-18T07:29:59.620Z,3.40
2019-02-18T07:32:28.079Z,3.50
2019-02-18T07:34:56.578Z,3.60
2019-02-18T07:37:25.030Z,3.60
2019-02-18T07:40:00.988Z,3.70
2019-02-18T07:42:23.695Z,3.70
2019-02-18T07:44:55.176Z,3.80
2019-02-18T07:47:23.648Z,3.90
2019-02-18T07:49:52.337Z,4.00
2019-02-18T07:52:20.829Z,4.40
2019-02-18T07:54:49.432Z,4.70
2019-02-18T07:57:17.973Z,5.10
2019-02-18T07:59:46.495Z,5.40
2019-02-18T08:02:15.047Z,5.80
2019-02-18T08:04:43.511Z,6.30
2019-02-18T08:07:11.976Z,6.60
2019-02-18T08:09:40.492Z,6.80
2019-02-18T08:12:09.023Z,7.10
2019-02-18T08:14:39.145Z,7.40
2019-02-18T08:17:07.648Z,7.30
2019-02-18T08:19:36.144Z,7.70
2019-02-18T08:22:04.872Z,8.20
2019-02-18T08:24:33.408Z,8.60
2019-02-18T08:27:01.888Z,8.60
2019-02-18T08:29:30.400Z,8.30
2019-02-18T08:31:58.882Z,8.50
2019-02-18T08:34:27.403Z,8.70
2019-02-18T08:36:55.948Z,8.50
2019-02-18T08:39:24.510Z,8.50
2019-02-18T08:41:53.101Z,8.60
2019-02-18T08:44:21.686Z,8.80
2019-02-18T08:46:50.260Z,9.20
2019-02-18T08:49:18.726Z,9.70
2019-02-18T08:51:47.203Z,9.70
2019-02-18T08:54:15.695Z,9.80
2019-02-18T08:56:44.192Z,10.40
2019-02-18T08:59:12.827Z,10.70
2019-02-18T09:01:41.324Z,11.30
2019-02-18T09:04:09.813Z,11.80
2019-02-18T09:06:38.272Z,11.80
2019-02-18T09:09:06.753Z,11.60
2019-02-18T09:11:35.295Z,11.60
2019-02-18T09:14:03.764Z,11.20
2019-02-18T09:16:32.329Z,11.80
2019-02-18T09:19:00.845Z,12.00
2019-02-18T09:21:31.257Z,12.20
2019-02-18T09:24:18.078Z,13.10
2019-02-18T09:26:46.608Z,13.60
2019-02-18T09:29:15.101Z,13.40
2019-02-18T09:31:43.727Z,12.40
2019-02-18T09:34:12.268Z,12.40
2019-02-18T09:36:40.750Z,12.50
2019-02-18T09:39:30.826Z,13.20
2019-02-18T09:41:50.337Z,13.20
2019-02-18T09:44:18.937Z,12.80
2019-02-18T09:46:47.502Z,13.10
2019-02-18T09:49:15.984Z,13.00
2019-02-18T09:51:44.860Z,13.30
2019-02-18T09:54:13.373Z,14.00
2019-02-18T09:56:41.877Z,13.90
2019-02-18T09:59:10.342Z,14.30
2019-02-18T10:01:38.832Z,14.50
2019-02-18T10:04:07.292Z,15.10
2019-02-18T10:06:35.766Z,15.40
2019-02-18T10:09:05.585Z,14.50
2019-02-18T10:11:34.961Z,14.20
2019-02-18T10:14:03.587Z,15.10
2019-02-18T10:16:32.844Z,15.10
2019-02-18T10:19:01.302Z,15.10
2019-02-18T10:21:29.857Z,15.30
2019-02-18T10:23:58.454Z,15.90
2019-02-18T10:26:39.170Z,15.10
2019-02-18T10:29:07.636Z,14.90
2019-02-18T10:31:36.125Z,14.60
2019-02-18T10:34:04.659Z,14.60
2019-02-18T10:36:33.129Z,15.60
2019-02-18T10:39:01.606Z,15.70
2019-02-18T10:41:30.072Z,15.80
2019-02-18T10:43:58.536Z,15.50
2019-02-18T10:46:27.137Z,15.20
2019-02-18T10:48:55.614Z,15.10
2019-02-18T10:51:24.189Z,15.20
2019-02-18T10:53:52.841Z,15.50
2019-02-18T10:56:21.297Z,15.90
2019-02-18T10:58:49.850Z,15.60
2019-02-18T11:01:18.439Z,15.60
2019-02-18T11:03:46.986Z,15.70
2019-02-18T11:06:16.118Z,15.50
2019-02-18T11:08:44.713Z,16.00
2019-02-18T11:11:16.976Z,16.20
2019-02-18T11:13:43.436Z,16.40
2019-02-18T11:16:11.928Z,16.50
2019-02-18T11:18:40.405Z,16.70
2019-02-18T11:21:09.381Z,17.00
2019-02-18T11:23:37.887Z,17.60
2019-02-18T11:26:06.403Z,17.50
2019-02-18T11:28:34.918Z,17.70
2019-02-18T11:31:03.399Z,17.30
2019-02-18T11:33:31.987Z,17.00
2019-02-18T11:36:00.873Z,17.80
2019-02-18T11:38:29.357Z,18.00
2019-02-18T11:40:57.916Z,17.90
2019-02-18T11:43:26.508Z,17.80
2019-02-18T11:45:55.288Z,18.00
2019-02-18T11:48:23.976Z,17.20
2019-02-18T11:50:53.101Z,17.40
2019-02-18T11:53:21.645Z,17.90
2019-02-18T11:55:50.183Z,18.40
2019-02-18T11:58:18.806Z,18.20
2019-02-18T12:00:47.269Z,18.20
2019-02-18T12:03:15.814Z,18.60
2019-02-18T12:05:44.676Z,18.90
2019-02-18T12:08:13.213Z,19.10
2019-02-18T12:10:41.767Z,19.20
2019-02-18T12:13:10.284Z,18.60
2019-02-18T12:15:38.770Z,18.00
2019-02-18T12:18:07.324Z,18.00
2019-02-18T12:20:35.931Z,18.00
2019-02-18T12:23:05.111Z,18.50
2019-02-18T12:25:33.719Z,19.10
2019-02-18T12:28:02.216Z,19.70
2019-02-18T12:30:32.457Z,19.60
2019-02-18T12:33:01.148Z,19.10
2019-02-18T12:35:31.048Z,19.10
2019-02-18T12:37:59.884Z,19.80
2019-02-18T12:40:28.463Z,19.90
2019-02-18T12:42:57.069Z,18.70
2019-02-18T12:45:25.680Z,18.50
2019-02-18T12:47:54.264Z,18.50
2019-02-18T12:50:22.815Z,18.10
2019-02-18T12:52:51.547Z,17.80
2019-02-18T12:55:20.120Z,17.90
2019-02-18T12:57:48.652Z,18.00
2019-02-18T13:00:17.412Z,17.70
2019-02-18T13:02:46.324Z,17.70
2019-02-18T13:05:14.870Z,17.40
2019-02-18T13:07:43.456Z,17.60
2019-02-18T13:10:12.872Z,17.50
2019-02-18T13:12:41.880Z,17.50
2019-02-18T13:15:16.856Z,17.50
2019-02-18T13:17:45.458Z,17.20
2019-02-18T13:20:14.060Z,17.10
2019-02-18T13:22:42.629Z,17.20
2019-02-18T13:25:11.355Z,17.40
2019-02-18T13:27:39.963Z,17.50
2019-02-18T13:30:19.953Z,17.40
2019-02-18T13:32:49.084Z,17.30
2019-02-18T13:35:17.768Z,17.10
2019-02-18T13:37:46.335Z,16.90
2019-02-18T13:40:16.538Z,16.90
2019-02-18T13:42:45.552Z,17.00
2019-02-18T13:45:14.177Z,17.10
2019-02-18T13:47:42.780Z,17.10
2019-02-18T13:50:13.059Z,17.20
2019-02-18T13:52:41.616Z,17.20
2019-02-18T13:55:14.205Z,17.40
2019-02-18T13:57:43.132Z,17.50
2019-02-18T14:00:20.403Z,17.20
2019-02-18T14:02:51.054Z,17.30
2019-02-18T14:05:21.432Z,17.40
2019-02-18T14:07:50.037Z,17.50
2019-02-18T14:10:19.772Z,17.50
2019-02-18T14:12:48.435Z,17.40
2019-02-18T14:15:17.458Z,17.30
2019-02-18T14:17:46.066Z,17.30
2019-02-18T14:20:15.812Z,17.40
2019-02-18T14:22:44.416Z,17.20
2019-02-18T14:25:14.344Z,17.00
2019-02-18T14:27:42.896Z,17.00
2019-02-18T14:30:17.324Z,17.00
2019-02-18T14:32:46.111Z,17.10
2019-02-18T14:35:17.388Z,17.20
2019-02-18T14:37:46.554Z,17.20
2019-02-18T14:40:18.002Z,17.10
2019-02-18T14:42:46.641Z,16.90
2019-02-18T14:45:16.092Z,17.00
2019-02-18T14:47:44.758Z,16.90
2019-02-18T14:50:16.360Z,16.80
2019-02-18T14:52:45.400Z,16.80
2019-02-18T14:55:14.686Z,16.80
2019-02-18T14:57:43.397Z,16.70
2019-02-18T15:00:19.174Z,16.80
2019-02-18T15:02:47.883Z,16.80
2019-02-18T15:05:16.681Z,16.70
2019-02-18T15:07:45.616Z,16.60
2019-02-18T15:10:15.555Z,16.50
2019-02-18T15:12:44.065Z,16.40
2019-02-18T15:15:12.660Z,16.30
2019-02-18T15:17:41.231Z,16.40
2019-02-18T15:20:11.510Z,16.30
2019-02-18T15:22:40.230Z,16.20
2019-02-18T15:25:10.524Z,16.10
2019-02-18T15:27:39.070Z,16.00
2019-02-18T15:30:14.021Z,15.90
2019-02-18T15:32:42.570Z,15.90
2019-02-18T15:35:11.132Z,15.90
2019-02-18T15:37:39.837Z,15.80
2019-02-18T15:40:10.605Z,15.80
2019-02-18T15:42:42.126Z,15.70
2019-02-18T15:45:10.004Z,15.60
2019-02-18T15:47:38.726Z,15.50
2019-02-18T15:50:10.703Z,15.50
2019-02-18T15:52:39.267Z,15.40
2019-02-18T15:55:09.296Z,15.30
2019-02-18T15:57:37.858Z,15.30
2019-02-18T16:00:09.526Z,15.10
2019-02-18T16:02:38.060Z,15.10
2019-02-18T16:05:08.125Z,15.00
2019-02-18T16:07:36.742Z,15.00
2019-02-18T16:10:08.062Z,14.90
2019-02-18T16:12:36.641Z,14.90
2019-02-18T16:15:08.009Z,14.80
2019-02-18T16:17:36.590Z,14.70
2019-02-18T16:20:10.408Z,14.60
2019-02-18T16:22:38.977Z,14.60
2019-02-18T16:25:16.307Z,14.50
2019-02-18T16:27:46.232Z,14.50
2019-02-18T16:30:15.516Z,14.40
2019-02-18T16:32:44.387Z,14.30
2019-02-18T16:35:13.179Z,14.20
2019-02-18T16:37:42.408Z,14.10
2019-02-18T16:40:13.818Z,14.00
2019-02-18T16:42:42.348Z,14.00
2019-02-18T16:45:13.324Z,13.90
2019-02-18T16:47:41.932Z,13.80
2019-02-18T16:50:11.196Z,13.70
2019-02-18T16:52:39.665Z,13.70
2019-02-18T16:55:10.942Z,13.50
2019-02-18T16:57:39.472Z,13.50
2019-02-18T17:00:19.272Z,13.30
2019-02-18T17:02:47.795Z,13.30
2019-02-18T17:05:16.348Z,13.10
2019-02-18T17:07:44.936Z,13.00
2019-02-18T17:10:13.836Z,12.90
2019-02-18T17:12:42.478Z,12.80
2019-02-18T17:15:12.708Z,12.70
2019-02-18T17:17:41.347Z,12.60
2019-02-18T17:20:09.988Z,12.40
2019-02-18T17:22:38.558Z,12.30
2019-02-18T17:25:09.845Z,12.10
2019-02-18T17:27:38.489Z,12.10
2019-02-18T17:30:13.367Z,11.90
2019-02-18T17:32:41.908Z,11.80
2019-02-18T17:35:12.754Z,11.70
2019-02-18T17:37:41.733Z,11.60
2019-02-18T17:40:12.125Z,11.50
2019-02-18T17:42:40.979Z,11.50
2019-02-18T17:45:14.420Z,11.40
2019-02-18T17:47:42.918Z,11.30
2019-02-18T17:50:16.349Z,11.30
2019-02-18T17:52:45.461Z,11.10
2019-02-18T17:55:16.337Z,11.00
2019-02-18T17:57:44.877Z,10.90
2019-02-18T18:00:21.521Z,10.80
2019-02-18T18:02:50.089Z,10.80
2019-02-18T18:05:18.781Z,10.70
2019-02-18T18:07:47.553Z,10.60
2019-02-18T18:10:16.603Z,10.60
2019-02-18T18:12:45.173Z,10.50
2019-02-18T18:15:18.315Z,10.40
2019-02-18T18:17:46.848Z,10.40
2019-02-18T18:20:15.836Z,10.30
2019-02-18T18:22:44.475Z,10.30
2019-02-18T18:25:14.761Z,10.20
2019-02-18T18:27:43.378Z,10.10
2019-02-18T18:30:17.556Z,10.10
2019-02-18T18:32:46.076Z,10.00
2019-02-18T18:35:27.288Z,10.00
2019-02-18T18:37:56.038Z,9.90
2019-02-18T18:40:24.721Z,9.90
2019-02-18T18:42:53.349Z,9.90
2019-02-18T18:45:21.815Z,9.90
2019-02-18T18:47:50.344Z,9.80
2019-02-18T18:50:21.815Z,9.70
2019-02-18T18:52:50.355Z,9.60
2019-02-18T18:55:19.137Z,9.60
2019-02-18T18:57:47.609Z,9.60
2019-02-18T19:00:20.824Z,9.50
2019-02-18T19:02:49.372Z,9.60
2019-02-18T19:05:18.567Z,9.50
2019-02-18T19:07:47.170Z,9.50
2019-02-18T19:10:15.860Z,9.40
2019-02-18T19:12:44.374Z,9.30
2019-02-18T19:15:18.183Z,9.30
2019-02-18T19:17:46.771Z,9.20
2019-02-18T19:20:15.620Z,9.20
2019-02-18T19:22:44.169Z,9.20
2019-02-18T19:25:13.417Z,9.20
2019-02-18T19:27:42.119Z,9.10
2019-02-18T19:30:13.717Z,9.10
2019-02-18T19:32:42.285Z,9.10
2019-02-18T19:35:30.092Z,9.10
2019-02-18T19:37:58.720Z,9.10
2019-02-18T19:40:27.219Z,9.10
2019-02-18T19:42:55.757Z,9.10
2019-02-18T19:45:25.288Z,9.00
2019-02-18T19:47:53.767Z,8.90
2019-02-18T19:50:22.345Z,9.00
2019-02-18T19:52:50.941Z,8.90
2019-02-18T19:55:20.655Z,8.80
2019-02-18T19:57:49.243Z,8.80
2019-02-18T20:00:19.421Z,8.80
2019-02-18T20:02:48.221Z,8.80
2019-02-18T20:05:16.841Z,8.70
2019-02-18T20:07:45.430Z,8.70
2019-02-18T20:10:14.193Z,8.70
2019-02-18T20:12:42.875Z,8.70
2019-02-18T20:15:15.665Z,8.70
2019-02-18T20:17:44.265Z,8.70
2019-02-18T20:20:16.944Z,8.70
2019-02-18T20:22:45.663Z,8.70
2019-02-18T20:25:14.279Z,8.70
2019-02-18T20:27:43.171Z,8.60
2019-02-18T20:30:16.774Z,8.60
2019-02-18T20:32:45.425Z,8.60
2019-02-18T20:35:13.972Z,8.60
2019-02-18T20:37:42.527Z,8.60
2019-02-18T20:40:11.625Z,8.50
2019-02-18T20:42:59.918Z,8.50
2019-02-18T20:45:28.464Z,8.50
2019-02-18T20:47:57.079Z,8.50
2019-02-18T20:50:25.692Z,8.50
2019-02-18T20:52:54.230Z,8.40
2019-02-18T20:55:22.954Z,8.40
2019-02-18T20:57:51.524Z,8.40
2019-02-18T21:00:20.786Z,8.40
2019-02-18T21:02:49.413Z,8.40
2019-02-18T21:05:18.106Z,8.40
2019-02-18T21:07:46.660Z,8.30
2019-02-18T21:10:17.779Z,8.30
2019-02-18T21:12:46.341Z,8.20
2019-02-18T21:15:14.882Z,8.20
2019-02-18T21:17:43.492Z,8.30
2019-02-18T21:20:13.451Z,8.20
2019-02-18T21:22:42.024Z,8.20
2019-02-18T21:25:12.459Z,8.10
2019-02-18T21:27:41.033Z,8.10
2019-02-18T21:30:14.521Z,8.20
2019-02-18T21:32:43.060Z,8.20
2019-02-18T21:35:11.689Z,8.40
2019-02-18T21:37:40.773Z,8.40
2019-02-18T21:40:11.049Z,8.50
2019-02-18T21:42:39.534Z,8.50
2019-02-18T21:45:13.149Z,8.60
2019-02-18T21:47:41.653Z,8.60
2019-02-18T21:50:11.822Z,8.60
2019-02-18T21:52:41.308Z,8.60
2019-02-18T21:55:11.208Z,8.60
2019-02-18T21:57:39.823Z,8.60
2019-02-18T22:00:13.012Z,8.60
2019-02-18T22:02:41.513Z,8.60
2019-02-18T22:05:10.124Z,8.60
2019-02-18T22:07:38.677Z,8.60
2019-02-18T22:10:08.908Z,8.60
2019-02-18T22:12:37.542Z,8.60
2019-02-18T22:15:08.175Z,8.60
2019-02-18T22:17:37.215Z,8.70
2019-02-18T22:20:08.630Z,8.60
2019-02-18T22:22:37.352Z,8.60
2019-02-18T22:25:08.799Z,8.60
2019-02-18T22:27:37.471Z,8.60
2019-02-18T22:30:11.721Z,8.50
2019-02-18T22:32:40.255Z,8.50
2019-02-18T22:35:08.849Z,8.50
2019-02-18T22:37:37.574Z,8.50
2019-02-18T22:40:08.163Z,8.40
2019-02-18T22:42:36.641Z,8.40
2019-02-18T22:45:06.160Z,8.30
2019-02-18T22:47:34.692Z,8.30
2019-02-18T22:50:03.692Z,8.30
2019-02-18T22:52:32.540Z,8.30
2019-02-18T22:55:01.160Z,8.20
2019-02-18T22:57:29.712Z,8.20
2019-02-18T22:59:58.179Z,8.20
2019-02-18T23:02:26.785Z,8.20
2019-02-18T23:04:55.290Z,8.20
2019-02-18T23:07:23.923Z,8.10
2019-02-18T23:09:52.784Z,8.10
2019-02-18T23:12:21.276Z,8.00
2019-02-18T23:14:50.641Z,8.00
2019-02-18T23:17:19.276Z,7.90
2019-02-18T23:19:47.821Z,8.00
2019-02-18T23:22:16.381Z,8.00
2019-02-18T23:24:44.927Z,7.90
2019-02-18T23:27:13.564Z,7.80
2019-02-18T23:29:42.052Z,7.80
2019-02-18T23:32:10.527Z,7.80
2019-02-18T23:34:58.433Z,7.80
2019-02-18T23:37:26.894Z,7.80
2019-02-18T23:39:55.356Z,7.80
2019-02-18T23:42:23.877Z,7.80
2019-02-18T23:44:58.989Z,7.80
2019-02-18T23:47:22.569Z,7.90
2019-02-18T23:49:52.734Z,7.90
2019-02-18T23:52:21.201Z,8.00
2019-02-18T23:54:49.667Z,8.00
2019-02-18T23:57:18.182Z,8.00
2019-02-18T23:59:46.652Z,8.10
